createdAt,value
2019-02-07T00:00:00.966Z,99986.84
2019-02-07T00:03:04.812Z,99984.61
2019-02-07T00:06:08.131Z,99977.16
2019-02-07T00:09:11.510Z,99973.61
2019-02-07T00:12:14.886Z,99962.22
2019-02-07T00:15:17.796Z,99953.06
2019-02-07T00:18:21.400Z,99942.98
2019-02-07T00:21:25.084Z,99941.23
2019-02-07T00:24:29.732Z,99936.41
2019-02-07T00:27:33.531Z,99935.05
2019-02-07T00:30:37.325Z,99921.50
2019-02-07T00:33:40.601Z,99927.20
2019-02-07T00:36:43.927Z,99920.62
2019-02-07T00:39:46.859Z,99910.11
2019-02-07T00:42:50.379Z,99907.97
2019-02-07T00:45:53.319Z,99895.66
2019-02-07T00:48:57.012Z,99890.44
2019-02-07T00:52:00.039Z,99887.82
2019-02-07T00:55:06.468Z,99877.69
2019-02-07T00:58:09.396Z,99890.01
2019-02-07T01:01:12.335Z,99878.17
2019-02-07T01:04:15.624Z,99862.84
2019-02-07T01:07:18.831Z,99869.36
2019-02-07T01:10:24.070Z,99850.13
2019-02-07T01:13:26.994Z,99847.87
2019-02-07T01:16:30.298Z,99845.23
2019-02-07T01:19:34.073Z,99838.24
2019-02-07T01:22:36.994Z,99830.47
2019-02-07T01:25:40.436Z,99812.94
2019-02-07T01:28:43.457Z,99803.23
2019-02-07T01:31:46.388Z,99806.42
2019-02-07T01:34:49.311Z,99795.48
2019-02-07T01:37:52.313Z,99798.67
2019-02-07T01:40:55.244Z,99787.72
2019-02-07T01:43:58.667Z,99793.52
2019-02-07T01:47:01.645Z,99793.58
2019-02-07T01:50:07.188Z,99791.44
2019-02-07T01:53:10.145Z,99787.89
2019-02-07T01:56:13.516Z,99773.15
2019-02-07T01:59:16.477Z,99777.15
2019-02-07T02:02:19.420Z,99754.44
2019-02-07T02:05:22.346Z,99750.05
2019-02-07T02:08:25.629Z,99755.75
2019-02-07T02:11:28.968Z,99752.19
2019-02-07T02:14:31.876Z,99740.86
2019-02-07T02:17:34.989Z,99735.23
2019-02-07T02:20:38.339Z,99735.13
2019-02-07T02:23:42.121Z,99723.42
2019-02-07T02:26:45.423Z,99715.98
2019-02-07T02:29:48.640Z,99713.73
2019-02-07T02:32:51.546Z,99702.42
2019-02-07T02:35:55.280Z,99701.63
2019-02-07T02:38:58.193Z,99692.45
2019-02-07T02:42:01.122Z,99687.66
2019-02-07T02:45:05.836Z,99678.53
2019-02-07T02:48:08.940Z,99684.59
2019-02-07T02:51:11.880Z,99670.60
2019-02-07T02:54:33.141Z,99662.33
2019-02-07T02:57:36.062Z,99658.34
2019-02-07T03:01:04.914Z,99657.97
2019-02-07T03:04:14.817Z,99655.78
2019-02-07T03:07:29.316Z,99653.20
2019-02-07T03:10:50.929Z,99634.34
2019-02-07T03:14:12.352Z,99629.91
2019-02-07T03:17:50.613Z,99632.98
2019-02-07T03:21:31.737Z,99616.84
2019-02-07T03:24:53.064Z,99616.89
2019-02-07T03:28:19.322Z,99607.65
2019-02-07T03:31:47.672Z,99595.84
2019-02-07T03:34:57.415Z,99577.48
2019-02-07T03:38:20.479Z,99574.84
2019-02-07T03:41:49.214Z,99564.67
2019-02-07T03:45:11.600Z,99551.60
2019-02-07T03:48:37.270Z,99537.29
2019-02-07T03:51:57.219Z,99532.78
2019-02-07T03:55:11.045Z,99519.64
2019-02-07T03:58:32.311Z,99514.41
2019-02-07T04:01:56.092Z,99517.42
2019-02-07T04:05:18.977Z,99502.49
2019-02-07T04:08:40.332Z,99495.02
2019-02-07T04:12:12.536Z,99494.65
2019-02-07T04:15:41.275Z,99494.95
2019-02-07T04:19:03.803Z,99496.71
2019-02-07T04:22:23.112Z,99487.91
2019-02-07T04:25:48.789Z,99486.56
2019-02-07T04:29:17.344Z,99485.62
2019-02-07T04:32:45.857Z,99467.17
2019-02-07T04:36:08.358Z,99457.08
2019-02-07T04:39:33.979Z,99465.27
2019-02-07T04:42:46.785Z,99448.16
2019-02-07T04:45:55.804Z,99443.00
2019-02-07T04:49:18.400Z,99441.62
2019-02-07T04:52:59.163Z,99440.72
2019-02-07T04:56:19.152Z,99428.41
2019-02-07T04:59:45.804Z,99417.88
2019-02-07T05:03:01.176Z,99432.77
2019-02-07T05:06:23.809Z,99426.12
2019-02-07T05:09:49.236Z,99427.80
2019-02-07T05:13:16.680Z,99429.19
2019-02-07T05:16:40.306Z,99436.69
2019-02-07T05:20:09.965Z,99417.44
2019-02-07T05:23:31.198Z,99419.56
2019-02-07T05:27:12.084Z,99415.32
2019-02-07T05:30:28.276Z,99401.74
2019-02-07T05:33:54.328Z,99417.90
2019-02-07T05:37:05.800Z,99410.08
2019-02-07T05:40:38.458Z,99396.96
2019-02-07T05:43:49.622Z,99390.38
2019-02-07T05:47:15.168Z,99391.36
2019-02-07T05:50:46.676Z,99372.61
2019-02-07T05:54:04.331Z,99358.59
2019-02-07T05:57:42.589Z,99364.12
2019-02-07T06:01:08.274Z,99361.59
2019-02-07T06:04:36.467Z,99348.97
2019-02-07T06:08:01.815Z,99356.30
2019-02-07T06:11:22.924Z,99358.41
2019-02-07T06:14:37.733Z,99335.22
2019-02-07T06:17:59.895Z,99334.89
2019-02-07T06:21:19.785Z,99324.02
2019-02-07T06:24:41.366Z,99318.73
2019-02-07T06:27:54.043Z,99323.64
2019-02-07T06:31:17.303Z,99311.44
2019-02-07T06:34:38.634Z,99309.69
2019-02-07T06:38:16.412Z,99303.55
2019-02-07T06:41:37.703Z,99299.59
2019-02-07T06:45:02.984Z,99298.75
2019-02-07T06:48:18.193Z,99289.89
2019-02-07T06:51:39.902Z,99297.77
2019-02-07T06:55:01.335Z,99294.60
2019-02-07T06:58:36.123Z,99295.81
2019-02-07T07:01:57.584Z,99288.94
2019-02-07T07:05:29.158Z,99279.85
2019-02-07T07:08:41.257Z,99270.14
2019-02-07T07:12:13.461Z,99287.53
2019-02-07T07:15:26.256Z,99289.87
2019-02-07T07:18:54.767Z,99275.91
2019-02-07T07:22:16.125Z,99291.14
2019-02-07T07:25:42.499Z,99289.42
2019-02-07T07:29:14.271Z,99288.06
2019-02-07T07:32:41.343Z,99291.94
2019-02-07T07:36:19.643Z,99286.58
2019-02-07T07:39:36.215Z,99290.60
2019-02-07T07:43:07.602Z,99283.23
2019-02-07T07:46:30.233Z,99286.73
2019-02-07T07:49:40.169Z,99299.36
2019-02-07T07:52:52.812Z,99292.87
2019-02-07T07:56:14.089Z,99285.75
2019-02-07T07:59:36.857Z,99300.13
2019-02-07T08:02:52.157Z,99297.59
2019-02-07T08:06:13.830Z,99301.00
2019-02-07T08:09:35.311Z,99294.95
2019-02-07T08:12:50.808Z,99293.25
2019-02-07T08:16:11.156Z,99301.09
2019-02-07T08:19:32.578Z,99313.25
2019-02-07T08:23:07.185Z,99309.52
2019-02-07T08:26:28.558Z,99293.53
2019-02-07T08:29:54.504Z,99299.61
2019-02-07T08:33:30.665Z,99308.93
2019-02-07T08:36:52.449Z,99311.40
2019-02-07T08:40:04.328Z,99307.13
2019-02-07T08:43:34.587Z,99304.73
2019-02-07T08:47:10.018Z,99305.08
2019-02-07T08:50:31.951Z,99312.52
2019-02-07T08:53:53.716Z,99323.56
2019-02-07T08:57:10.736Z,99343.50
2019-02-07T09:00:25.280Z,99331.55
2019-02-07T09:03:57.554Z,99328.16
2019-02-07T09:07:22.917Z,99334.66
2019-02-07T09:10:51.515Z,99339.71
2019-02-07T09:14:10.396Z,99334.08
2019-02-07T09:17:48.847Z,99341.73
2019-02-07T09:21:17.753Z,99345.60
2019-02-07T09:24:33.002Z,99350.30
2019-02-07T09:28:02.936Z,99342.65
2019-02-07T09:31:25.920Z,99352.81
2019-02-07T09:34:36.637Z,99338.68
2019-02-07T09:37:58.553Z,99349.90
2019-02-07T09:41:20.141Z,99340.58
2019-02-07T09:44:55.020Z,99348.02
2019-02-07T09:48:21.820Z,99341.30
2019-02-07T09:51:39.252Z,99347.09
2019-02-07T09:55:17.264Z,99347.22
2019-02-07T09:58:38.781Z,99352.14
2019-02-07T10:02:00.249Z,99352.66
2019-02-07T10:05:22.480Z,99356.52
2019-02-07T10:08:41.304Z,99368.24
2019-02-07T10:12:02.179Z,99368.45
2019-02-07T10:15:16.843Z,99370.09
2019-02-07T10:18:45.758Z,99367.87
2019-02-07T10:22:08.939Z,99375.82
2019-02-07T10:25:30.531Z,99377.63
2019-02-07T10:28:47.838Z,99392.52
2019-02-07T10:32:13.348Z,99384.66
2019-02-07T10:35:35.874Z,99388.74
2019-02-07T10:39:01.305Z,99391.15
2019-02-07T10:42:17.628Z,99389.74
2019-02-07T10:45:40.279Z,99400.82
2019-02-07T10:48:52.101Z,99393.39
2019-02-07T10:52:08.887Z,99402.17
2019-02-07T10:55:40.924Z,99409.32
2019-02-07T10:59:06.305Z,99399.81
2019-02-07T11:02:28.193Z,99399.81
2019-02-07T11:05:51.002Z,99425.33
2019-02-07T11:09:14.206Z,99413.23
2019-02-07T11:12:37.871Z,99402.05
2019-02-07T11:16:10.831Z,99401.24
2019-02-07T11:19:46.108Z,99405.80
2019-02-07T11:23:08.645Z,99389.81
2019-02-07T11:26:43.606Z,99381.06
2019-02-07T11:29:57.763Z,99381.42
2019-02-07T11:33:23.927Z,99384.78
2019-02-07T11:36:58.304Z,99369.13
2019-02-07T11:40:21.169Z,99370.45
2019-02-07T11:43:49.667Z,99362.22
2019-02-07T11:47:12.546Z,99374.92
2019-02-07T11:50:55.373Z,99368.75
2019-02-07T11:54:30.176Z,99373.02
2019-02-07T11:57:42.780Z,99377.36
2019-02-07T12:01:00.090Z,99385.96
2019-02-07T12:04:21.664Z,99378.98
2019-02-07T12:07:44.376Z,99381.49
2019-02-07T12:10:58.332Z,99379.27
2019-02-07T12:14:31.220Z,99376.50
2019-02-07T12:17:44.121Z,99366.50
2019-02-07T12:21:09.754Z,99370.20
2019-02-07T12:24:32.177Z,99359.52
2019-02-07T12:27:48.956Z,99369.45
2019-02-07T12:31:12.922Z,99369.30
2019-02-07T12:34:29.839Z,99385.60
2019-02-07T12:37:50.902Z,99368.04
2019-02-07T12:41:13.472Z,99371.67
2019-02-07T12:44:42.628Z,99352.47
2019-02-07T12:48:20.286Z,99361.28
2019-02-07T12:51:40.887Z,99364.21
2019-02-07T12:54:55.312Z,99353.20
2019-02-07T12:58:26.827Z,99360.31
2019-02-07T13:01:49.266Z,99355.84
2019-02-07T13:05:17.588Z,99341.48
2019-02-07T13:08:37.603Z,99355.61
2019-02-07T13:12:00.480Z,99358.45
2019-02-07T13:15:16.463Z,99357.00
2019-02-07T13:18:34.398Z,99361.66
2019-02-07T13:22:02.948Z,99358.36
2019-02-07T13:25:25.940Z,99352.45
2019-02-07T13:28:42.951Z,99353.63
2019-02-07T13:32:04.263Z,99346.48
2019-02-07T13:35:36.670Z,99334.33
2019-02-07T13:38:56.325Z,99345.93
2019-02-07T13:42:19.208Z,99348.36
2019-02-07T13:45:50.408Z,99339.05
2019-02-07T13:49:11.776Z,99353.84
2019-02-07T13:52:24.969Z,99355.89
2019-02-07T13:55:47.348Z,99355.59
2019-02-07T13:59:21.962Z,99348.26
2019-02-07T14:02:47.749Z,99349.68
2019-02-07T14:06:09.082Z,99341.83
2019-02-07T14:09:46.897Z,99342.66
2019-02-07T14:13:15.903Z,99344.40
2019-02-07T14:16:47.976Z,99350.44
2019-02-07T14:20:09.123Z,99352.53
2019-02-07T14:23:30.372Z,99358.77
2019-02-07T14:26:52.914Z,99358.88
2019-02-07T14:30:21.572Z,99354.89
2019-02-07T14:33:43.266Z,99359.44
2019-02-07T14:37:09.912Z,99360.16
2019-02-07T14:40:35.243Z,99362.55
2019-02-07T14:44:00.988Z,99366.80
2019-02-07T14:47:04.050Z,99361.31
2019-02-07T14:50:14.914Z,99361.37
2019-02-07T14:53:13.835Z,99361.53
2019-02-07T14:56:17.173Z,99358.42
2019-02-07T14:59:20.107Z,99375.34
2019-02-07T15:02:23.074Z,99374.45
2019-02-07T15:05:26.021Z,99387.64
2019-02-07T15:08:29.364Z,99383.71
2019-02-07T15:11:32.306Z,99391.30
2019-02-07T15:14:35.280Z,99384.16
2019-02-07T15:17:38.645Z,99385.55
2019-02-07T15:20:42.306Z,99387.22
2019-02-07T15:23:45.551Z,99382.62
2019-02-07T15:26:48.848Z,99386.06
2019-02-07T15:29:51.795Z,99379.59
2019-02-07T15:32:54.734Z,99386.03
2019-02-07T15:35:58.404Z,99388.83
2019-02-07T15:39:01.348Z,99389.92
2019-02-07T15:42:06.556Z,99398.64
2019-02-07T15:45:11.632Z,99388.83
2019-02-07T15:48:15.278Z,99389.34
2019-02-07T15:51:18.493Z,99396.32
2019-02-07T15:54:21.635Z,99394.68
2019-02-07T15:57:25.244Z,99398.19
2019-02-07T16:00:49.943Z,99408.77
2019-02-07T16:04:11.233Z,99403.75
2019-02-07T16:07:14.545Z,99405.08
2019-02-07T16:10:17.591Z,99392.78
2019-02-07T16:13:20.506Z,99394.41
2019-02-07T16:16:24.867Z,99386.80
2019-02-07T16:19:28.140Z,99391.87
2019-02-07T16:22:31.795Z,99385.83
2019-02-07T16:25:35.480Z,99400.66
2019-02-07T16:28:38.878Z,99394.13
2019-02-07T16:31:42.588Z,99407.52
2019-02-07T16:34:46.511Z,99415.02
2019-02-07T16:37:50.278Z,99394.41
2019-02-07T16:40:53.253Z,99394.83
2019-02-07T16:43:57.134Z,99408.33
2019-02-07T16:47:00.109Z,99428.05
2019-02-07T16:50:06.080Z,99449.41
2019-02-07T16:53:09.777Z,99442.32
2019-02-07T16:56:12.844Z,99440.41
2019-02-07T16:59:16.168Z,99427.37
2019-02-07T17:02:19.320Z,99415.95
2019-02-07T17:05:23.500Z,99434.27
2019-02-07T17:08:26.458Z,99438.19
2019-02-07T17:11:29.476Z,99438.67
2019-02-07T17:14:32.496Z,99442.15
2019-02-07T17:17:35.526Z,99442.57
2019-02-07T17:20:39.533Z,99447.42
2019-02-07T17:23:42.473Z,99446.50
2019-02-07T17:26:45.381Z,99455.30
2019-02-07T17:29:48.436Z,99460.93
2019-02-07T17:32:51.773Z,99461.89
2019-02-07T17:35:54.965Z,99472.91
2019-02-07T17:38:57.919Z,99471.56
2019-02-07T17:42:00.926Z,99483.47
2019-02-07T17:45:05.883Z,99494.44
2019-02-07T17:48:09.613Z,99501.12
2019-02-07T17:51:22.823Z,99512.52
2019-02-07T17:54:19.165Z,99517.69
2019-02-07T17:57:22.562Z,99516.39
2019-02-07T18:00:42.623Z,99517.69
2019-02-07T18:03:45.908Z,99523.51
2019-02-07T18:06:49.315Z,99520.34
2019-02-07T18:09:52.643Z,99520.84
2019-02-07T18:12:55.987Z,99540.11
2019-02-07T18:15:59.555Z,99531.39
2019-02-07T18:19:02.499Z,99536.23
2019-02-07T18:22:05.850Z,99539.32
2019-02-07T18:25:09.330Z,99547.09
2019-02-07T18:28:12.257Z,99550.23
2019-02-07T18:31:15.200Z,99555.48
2019-02-07T18:34:18.865Z,99564.72
2019-02-07T18:37:22.571Z,99575.71
2019-02-07T18:40:26.972Z,99562.06
2019-02-07T18:43:29.912Z,99560.75
2019-02-07T18:46:32.912Z,99561.64
2019-02-07T18:49:35.854Z,99563.53
2019-02-07T18:52:38.929Z,99563.95
2019-02-07T18:55:42.283Z,99569.60
2019-02-07T18:58:45.624Z,99582.16
2019-02-07T19:01:48.827Z,99582.03
2019-02-07T19:04:52.058Z,99584.34
2019-02-07T19:07:55.437Z,99577.33
2019-02-07T19:10:58.360Z,99588.44
2019-02-07T19:14:01.316Z,99581.48
2019-02-07T19:17:05.037Z,99577.13
2019-02-07T19:20:12.685Z,99593.45
2019-02-07T19:23:15.711Z,99599.00
2019-02-07T19:26:18.906Z,99579.86
2019-02-07T19:29:21.855Z,99586.53
2019-02-07T19:32:25.096Z,99597.89
2019-02-07T19:35:28.927Z,99602.25
2019-02-07T19:38:32.966Z,99596.98
2019-02-07T19:41:36.522Z,99598.78
2019-02-07T19:44:39.875Z,99602.67
2019-02-07T19:47:43.043Z,99610.30
2019-02-07T19:50:46.004Z,99605.84
2019-02-07T19:53:48.981Z,99617.09
2019-02-07T19:56:52.281Z,99610.61
2019-02-07T19:59:55.528Z,99604.48
2019-02-07T20:02:58.916Z,99612.78
2019-02-07T20:06:02.051Z,99621.17
2019-02-07T20:09:11.072Z,99621.06
2019-02-07T20:12:15.932Z,99625.10
2019-02-07T20:15:26.305Z,99625.51
2019-02-07T20:18:29.569Z,99621.31
2019-02-07T20:21:33.021Z,99619.50
2019-02-07T20:24:45.672Z,99625.30
2019-02-07T20:27:41.636Z,99630.55
2019-02-07T20:30:44.717Z,99632.31
2019-02-07T20:33:48.117Z,99638.03
2019-02-07T20:36:52.755Z,99647.71
2019-02-07T20:39:55.774Z,99652.94
2019-02-07T20:42:58.814Z,99648.19
2019-02-07T20:46:03.252Z,99658.86
2019-02-07T20:49:06.650Z,99665.45
2019-02-07T20:52:10.049Z,99677.66
2019-02-07T20:55:13.977Z,99682.56
2019-02-07T20:58:17.032Z,99675.89
2019-02-07T21:01:20.128Z,99689.05
2019-02-07T21:04:23.189Z,99682.89
2019-02-07T21:07:26.237Z,99688.17
2019-02-07T21:10:30.945Z,99685.70
2019-02-07T21:13:33.898Z,99681.33
2019-02-07T21:16:36.831Z,99686.33
2019-02-07T21:19:39.787Z,99683.80
2019-02-07T21:22:42.792Z,99686.39
2019-02-07T21:25:48.846Z,99686.68
2019-02-07T21:28:51.885Z,99693.26
2019-02-07T21:31:54.836Z,99694.31
2019-02-07T21:34:57.745Z,99708.64
2019-02-07T21:38:01.209Z,99700.83
2019-02-07T21:41:04.400Z,99716.97
2019-02-07T21:44:07.447Z,99716.81
2019-02-07T21:47:10.478Z,99725.28
2019-02-07T21:50:17.164Z,99720.92
2019-02-07T21:53:21.479Z,99721.73
2019-02-07T21:56:24.505Z,99722.20
2019-02-07T21:59:28.271Z,99727.06
2019-02-07T22:02:31.597Z,99728.44
2019-02-07T22:05:35.041Z,99738.00
2019-02-07T22:08:37.970Z,99745.92
2019-02-07T22:11:40.896Z,99746.89
2019-02-07T22:14:44.156Z,99749.15
2019-02-07T22:17:47.738Z,99752.01
2019-02-07T22:20:51.571Z,99747.22
2019-02-07T22:23:54.868Z,99752.97
2019-02-07T22:26:57.883Z,99754.81
2019-02-07T22:30:00.936Z,99750.77
2019-02-07T22:33:04.429Z,99754.72
2019-02-07T22:36:07.638Z,99752.58
2019-02-07T22:39:10.560Z,99756.44
2019-02-07T22:42:14.131Z,99755.12
2019-02-07T22:45:18.861Z,99758.55
2019-02-07T22:48:22.377Z,99759.25
2019-02-07T22:51:25.325Z,99757.09
2019-02-07T22:54:28.672Z,99761.08
2019-02-07T22:57:33.188Z,99764.07
2019-02-07T23:01:35.527Z,99772.87
2019-02-07T23:04:38.558Z,99760.22
2019-02-07T23:07:41.816Z,99767.70
2019-02-07T23:10:44.951Z,99783.90
2019-02-07T23:13:47.883Z,99779.00
2019-02-07T23:16:50.797Z,99787.27
2019-02-07T23:19:54.071Z,99781.36
2019-02-07T23:23:04.438Z,99784.27
2019-02-07T23:26:02.832Z,99780.84
2019-02-07T23:29:05.964Z,99791.89
2019-02-07T23:32:08.881Z,99787.93
2019-02-07T23:35:12.310Z,99788.31
2019-02-07T23:38:15.603Z,99783.41
2019-02-07T23:41:18.904Z,99786.47
2019-02-07T23:44:21.909Z,99786.53
2019-02-07T23:47:25.674Z,99785.81
2019-02-07T23:50:28.944Z,99784.87
2019-02-07T23:53:31.860Z,99792.75
2019-02-07T23:56:34.795Z,99787.05
2019-02-07T23:59:37.684Z,99787.93
